sensor_id;sensor_type;location;lat;lon;timestamp;pressure;altitude;pressure_sealevel;temperature;humidity
59274;BME280;45044;41.572;24.730;2023-08-08T00:01:10;91062.84;;;15.03;100.00
59274;BME280;45044;41.572;24.730;2023-08-08T00:03:37;91051.09;;;15.04;100.00
59274;BME280;45044;41.572;24.730;2023-08-08T00:06:04;91068.53;;;15.21;100.00
59274;BME280;45044;41.572;24.730;2023-08-08T00:08:32;91060.59;;;15.21;100.00
59274;BME280;45044;41.572;24.730;2023-08-08T00:10:58;91056.94;;;14.71;100.00
59274;BME280;45044;41.572;24.730;2023-08-08T00:13:25;91064.47;;;14.72;100.00
59274;BME280;45044;41.572;24.730;2023-08-08T00:15:52;91065.28;;;14.93;100.00
59274;BME280;45044;41.572;24.730;2023-08-08T00:18:19;91069.06;;;14.92;100.00
59274;BME280;45044;41.572;24.730;2023-08-08T00:20:45;91060.88;;;15.07;100.00
59274;BME280;45044;41.572;24.730;2023-08-08T00:23:12;91060.06;;;15.10;100.00
59274;BME280;45044;41.572;24.730;2023-08-08T00:25:39;91073.50;;;15.19;100.00
59274;BME280;45044;41.572;24.730;2023-08-08T00:28:06;91067.19;;;15.13;100.00
59274;BME280;45044;41.572;24.730;2023-08-08T00:30:32;91074.09;;;14.87;100.00
59274;BME280;45044;41.572;24.730;2023-08-08T00:32:59;91060.63;;;14.77;100.00
59274;BME280;45044;41.572;24.730;2023-08-08T00:35:26;91069.19;;;14.85;100.00
59274;BME280;45044;41.572;24.730;2023-08-08T00:37:52;91062.16;;;14.99;100.00
59274;BME280;45044;41.572;24.730;2023-08-08T00:40:19;91066.16;;;15.07;100.00
59274;BME280;45044;41.572;24.730;2023-08-08T00:42:46;91059.06;;;14.80;100.00
59274;BME280;45044;41.572;24.730;2023-08-08T00:45:13;91061.06;;;14.28;100.00
59274;BME280;45044;41.572;24.730;2023-08-08T00:47:40;91057.47;;;14.62;100.00
59274;BME280;45044;41.572;24.730;2023-08-08T00:50:08;91062.06;;;14.58;100.00
59274;BME280;45044;41.572;24.730;2023-08-08T00:52:35;91063.94;;;14.61;100.00
59274;BME280;45044;41.572;24.730;2023-08-08T00:55:03;91069.59;;;14.59;100.00
59274;BME280;45044;41.572;24.730;2023-08-08T00:57:30;91067.31;;;14.61;100.00
59274;BME280;45044;41.572;24.730;2023-08-08T00:59:57;91067.47;;;14.75;100.00
59274;BME280;45044;41.572;24.730;2023-08-08T01:02:24;91069.78;;;14.72;100.00
59274;BME280;45044;41.572;24.730;2023-08-08T01:04:50;91070.72;;;14.62;100.00
59274;BME280;45044;41.572;24.730;2023-08-08T01:10:06;91080.47;;;14.65;100.00
59274;BME280;45044;41.572;24.730;2023-08-08T01:13:26;91081.97;;;14.66;100.00
59274;BME280;45044;41.572;24.730;2023-08-08T01:15:29;91081.28;;;14.62;100.00
59274;BME280;45044;41.572;24.730;2023-08-08T01:18:05;91085.16;;;14.57;100.00
59274;BME280;45044;41.572;24.730;2023-08-08T01:20:34;91083.69;;;14.29;100.00
59274;BME280;45044;41.572;24.730;2023-08-08T01:25:30;91083.94;;;14.38;100.00
59274;BME280;45044;41.572;24.730;2023-08-08T01:27:58;91085.03;;;14.41;100.00
59274;BME280;45044;41.572;24.730;2023-08-08T01:30:24;91098.66;;;14.39;100.00
59274;BME280;45044;41.572;24.730;2023-08-08T01:32:51;91092.09;;;14.23;100.00
59274;BME280;45044;41.572;24.730;2023-08-08T01:35:18;91088.88;;;14.36;100.00
59274;BME280;45044;41.572;24.730;2023-08-08T01:37:52;91099.63;;;14.25;100.00
59274;BME280;45044;41.572;24.730;2023-08-08T01:40:21;91099.63;;;14.25;100.00
59274;BME280;45044;41.572;24.730;2023-08-08T01:42:48;91102.81;;;14.12;100.00
59274;BME280;45044;41.572;24.730;2023-08-08T01:45:15;91099.66;;;13.97;100.00
59274;BME280;45044;41.572;24.730;2023-08-08T01:47:43;91095.44;;;14.00;100.00
59274;BME280;45044;41.572;24.730;2023-08-08T01:50:09;91102.38;;;14.18;100.00
59274;BME280;45044;41.572;24.730;2023-08-08T01:52:36;91102.72;;;14.20;100.00
59274;BME280;45044;41.572;24.730;2023-08-08T01:55:03;91104.31;;;13.86;100.00
59274;BME280;45044;41.572;24.730;2023-08-08T01:57:30;91096.81;;;14.12;100.00
59274;BME280;45044;41.572;24.730;2023-08-08T01:59:57;91089.16;;;14.18;100.00
59274;BME280;45044;41.572;24.730;2023-08-08T02:02:24;91090.59;;;14.22;100.00
59274;BME280;45044;41.572;24.730;2023-08-08T02:04:50;91097.84;;;14.18;100.00
59274;BME280;45044;41.572;24.730;2023-08-08T02:07:17;91097.13;;;14.14;100.00
59274;BME280;45044;41.572;24.730;2023-08-08T02:09:44;91098.59;;;14.19;100.00
59274;BME280;45044;41.572;24.730;2023-08-08T02:12:12;91093.75;;;14.13;100.00
59274;BME280;45044;41.572;24.730;2023-08-08T02:14:39;91097.19;;;14.10;100.00
59274;BME280;45044;41.572;24.730;2023-08-08T02:17:06;91097.28;;;14.03;100.00
59274;BME280;45044;41.572;24.730;2023-08-08T02:19:32;91097.66;;;13.77;100.00
59274;BME280;45044;41.572;24.730;2023-08-08T02:21:59;91102.28;;;13.97;100.00
59274;BME280;45044;41.572;24.730;2023-08-08T02:24:26;91103.78;;;13.98;100.00
59274;BME280;45044;41.572;24.730;2023-08-08T02:26:53;91107.19;;;13.99;100.00
59274;BME280;45044;41.572;24.730;2023-08-08T02:29:20;91111.19;;;13.80;100.00
59274;BME280;45044;41.572;24.730;2023-08-08T02:31:46;91102.00;;;13.92;100.00
59274;BME280;45044;41.572;24.730;2023-08-08T02:34:13;91111.19;;;13.80;100.00
59274;BME280;45044;41.572;24.730;2023-08-08T02:36:40;91112.22;;;13.58;100.00
59274;BME280;45044;41.572;24.730;2023-08-08T02:39:07;91106.28;;;13.47;100.00
59274;BME280;45044;41.572;24.730;2023-08-08T02:41:33;91109.19;;;13.60;100.00
59274;BME280;45044;41.572;24.730;2023-08-08T02:44:00;91109.09;;;13.67;100.00
59274;BME280;45044;41.572;24.730;2023-08-08T02:46:27;91122.75;;;13.62;100.00
59274;BME280;45044;41.572;24.730;2023-08-08T02:48:54;91121.81;;;13.45;100.00
59274;BME280;45044;41.572;24.730;2023-08-08T02:51:20;91125.88;;;13.53;100.00
59274;BME280;45044;41.572;24.730;2023-08-08T02:53:47;91125.16;;;13.45;100.00
59274;BME280;45044;41.572;24.730;2023-08-08T02:56:14;91138.19;;;13.28;100.00
59274;BME280;45044;41.572;24.730;2023-08-08T02:58:41;91146.59;;;13.16;100.00
59274;BME280;45044;41.572;24.730;2023-08-08T03:01:07;91141.31;;;13.16;100.00
59274;BME280;45044;41.572;24.730;2023-08-08T03:03:34;91154.38;;;13.30;100.00
59274;BME280;45044;41.572;24.730;2023-08-08T03:06:01;91150.97;;;13.34;100.00
59274;BME280;45044;41.572;24.730;2023-08-08T03:08:28;91153.09;;;13.46;100.00
59274;BME280;45044;41.572;24.730;2023-08-08T03:10:55;91151.88;;;13.55;100.00
59274;BME280;45044;41.572;24.730;2023-08-08T03:13:22;91154.53;;;13.55;100.00
59274;BME280;45044;41.572;24.730;2023-08-08T03:15:49;91157.94;;;13.51;100.00
59274;BME280;45044;41.572;24.730;2023-08-08T03:18:16;91145.84;;;13.50;100.00
59274;BME280;45044;41.572;24.730;2023-08-08T03:20:42;91153.81;;;13.47;100.00
59274;BME280;45044;41.572;24.730;2023-08-08T03:23:09;91157.56;;;13.53;100.00
59274;BME280;45044;41.572;24.730;2023-08-08T03:25:36;91163.22;;;13.51;100.00
59274;BME280;45044;41.572;24.730;2023-08-08T03:28:03;91166.81;;;13.34;100.00
59274;BME280;45044;41.572;24.730;2023-08-08T03:30:30;91166.59;;;13.56;100.00
59274;BME280;45044;41.572;24.730;2023-08-08T03:32:57;91177.16;;;13.56;100.00
59274;BME280;45044;41.572;24.730;2023-08-08T03:35:24;91166.59;;;13.56;100.00
59274;BME280;45044;41.572;24.730;2023-08-08T03:37:51;91174.91;;;13.50;100.00
59274;BME280;45044;41.572;24.730;2023-08-08T03:40:18;91176.94;;;13.39;100.00
59274;BME280;45044;41.572;24.730;2023-08-08T03:42:45;91183.97;;;13.53;100.00
59274;BME280;45044;41.572;24.730;2023-08-08T03:45:11;91183.84;;;13.64;100.00
59274;BME280;45044;41.572;24.730;2023-08-08T03:47:38;91189.00;;;13.75;100.00
59274;BME280;45044;41.572;24.730;2023-08-08T03:50:06;91174.16;;;13.53;100.00
59274;BME280;45044;41.572;24.730;2023-08-08T03:52:33;91191.84;;;13.57;100.00
59274;BME280;45044;41.572;24.730;2023-08-08T03:55:02;91192.09;;;13.70;100.00
59274;BME280;45044;41.572;24.730;2023-08-08T03:57:30;91196.44;;;13.84;100.00
59274;BME280;45044;41.572;24.730;2023-08-08T03:59:57;91198.56;;;13.96;100.00
59274;BME280;45044;41.572;24.730;2023-08-08T04:02:24;91192.66;;;13.85;100.00
59274;BME280;45044;41.572;24.730;2023-08-08T04:04:51;91198.91;;;13.98;100.00
59274;BME280;45044;41.572;24.730;2023-08-08T04:07:18;91199.22;;;14.04;100.00
59274;BME280;45044;41.572;24.730;2023-08-08T04:09:45;91199.78;;;14.19;100.00
59274;BME280;45044;41.572;24.730;2023-08-08T04:12:12;91201.50;;;14.02;100.00
59274;BME280;45044;41.572;24.730;2023-08-08T04:14:38;91198.31;;;14.15;100.00
59274;BME280;45044;41.572;24.730;2023-08-08T04:17:05;91202.63;;;14.32;100.00
59274;BME280;45044;41.572;24.730;2023-08-08T04:19:37;91209.00;;;14.35;100.00
59274;BME280;45044;41.572;24.730;2023-08-08T04:22:04;91208.66;;;14.33;100.00
59274;BME280;45044;41.572;24.730;2023-08-08T04:24:31;91211.47;;;14.49;100.00
59274;BME280;45044;41.572;24.730;2023-08-08T04:26:58;91214.34;;;14.59;100.00
59274;BME280;45044;41.572;24.730;2023-08-08T04:29:25;91214.81;;;14.54;100.00
59274;BME280;45044;41.572;24.730;2023-08-08T04:31:51;91216.03;;;14.45;100.00
59274;BME280;45044;41.572;24.730;2023-08-08T04:34:18;91220.31;;;14.63;100.00
59274;BME280;45044;41.572;24.730;2023-08-08T04:36:45;91217.28;;;14.92;100.00
59274;BME280;45044;41.572;24.730;2023-08-08T04:39:12;91215.22;;;15.04;100.00
59274;BME280;45044;41.572;24.730;2023-08-08T04:41:38;91222.50;;;15.20;100.00
59274;BME280;45044;41.572;24.730;2023-08-08T04:44:05;91215.44;;;15.13;100.00
59274;BME280;45044;41.572;24.730;2023-08-08T04:46:32;91219.22;;;15.12;100.00
59274;BME280;45044;41.572;24.730;2023-08-08T04:48:59;91221.56;;;15.30;100.00
59274;BME280;45044;41.572;24.730;2023-08-08T04:51:25;91219.25;;;14.88;100.00
59274;BME280;45044;41.572;24.730;2023-08-08T04:53:52;91230.22;;;15.11;100.00
59274;BME280;45044;41.572;24.730;2023-08-08T04:56:19;91228.19;;;14.94;100.00
59274;BME280;45044;41.572;24.730;2023-08-08T04:58:46;91231.31;;;15.37;100.00
59274;BME280;45044;41.572;24.730;2023-08-08T05:01:13;91234.91;;;15.47;100.00
59274;BME280;45044;41.572;24.730;2023-08-08T05:03:42;91243.97;;;15.50;100.00
59274;BME280;45044;41.572;24.730;2023-08-08T05:06:09;91246.28;;;15.68;100.00
59274;BME280;45044;41.572;24.730;2023-08-08T05:08:36;91253.22;;;15.82;100.00
59274;BME280;45044;41.572;24.730;2023-08-08T05:11:03;91253.28;;;15.99;100.00
59274;BME280;45044;41.572;24.730;2023-08-08T05:13:29;91241.81;;;16.06;100.00
59274;BME280;45044;41.572;24.730;2023-08-08T05:15:56;91245.75;;;16.17;100.00
59274;BME280;45044;41.572;24.730;2023-08-08T05:18:23;91244.47;;;16.06;100.00
59274;BME280;45044;41.572;24.730;2023-08-08T05:20:50;91248.53;;;16.10;100.00
59274;BME280;45044;41.572;24.730;2023-08-08T05:23:17;91257.03;;;16.22;100.00
59274;BME280;45044;41.572;24.730;2023-08-08T05:25:45;91264.59;;;16.60;100.00
59274;BME280;45044;41.572;24.730;2023-08-08T05:28:12;91274.41;;;16.80;100.00
59274;BME280;45044;41.572;24.730;2023-08-08T05:30:38;91270.84;;;16.87;100.00
59274;BME280;45044;41.572;24.730;2023-08-08T05:33:05;91270.81;;;16.54;100.00
59274;BME280;45044;41.572;24.730;2023-08-08T05:35:34;91277.22;;;16.73;100.00
59274;BME280;45044;41.572;24.730;2023-08-08T05:38:01;91283.53;;;16.79;100.00
59274;BME280;45044;41.572;24.730;2023-08-08T05:40:28;91277.38;;;16.82;100.00
59274;BME280;45044;41.572;24.730;2023-08-08T05:42:54;91286.50;;;16.81;100.00
59274;BME280;45044;41.572;24.730;2023-08-08T05:45:21;91287.00;;;16.76;100.00
59274;BME280;45044;41.572;24.730;2023-08-08T05:47:48;91289.41;;;16.87;100.00
59274;BME280;45044;41.572;24.730;2023-08-08T05:50:15;91290.72;;;16.62;100.00
59274;BME280;45044;41.572;24.730;2023-08-08T05:52:42;91294.91;;;16.59;100.00
59274;BME280;45044;41.572;24.730;2023-08-08T05:55:08;91300.28;;;16.93;100.00
59274;BME280;45044;41.572;24.730;2023-08-08T05:57:36;91308.72;;;17.24;100.00
59274;BME280;45044;41.572;24.730;2023-08-08T06:00:04;91303.00;;;17.43;100.00
59274;BME280;45044;41.572;24.730;2023-08-08T06:02:31;91310.81;;;17.50;100.00
59274;BME280;45044;41.572;24.730;2023-08-08T06:04:58;91313.28;;;17.57;100.00
59274;BME280;45044;41.572;24.730;2023-08-08T06:07:25;91312.09;;;17.58;100.00
59274;BME280;45044;41.572;24.730;2023-08-08T06:09:52;91315.44;;;17.92;100.00
59274;BME280;45044;41.572;24.730;2023-08-08T06:12:19;91324.56;;;17.62;100.00
59274;BME280;45044;41.572;24.730;2023-08-08T06:14:46;91326.16;;;17.59;100.00
59274;BME280;45044;41.572;24.730;2023-08-08T06:17:13;91329.91;;;17.28;100.00
59274;BME280;45044;41.572;24.730;2023-08-08T06:19:41;91330.03;;;17.54;100.00
59274;BME280;45044;41.572;24.730;2023-08-08T06:22:07;91333.53;;;17.68;100.00
59274;BME280;45044;41.572;24.730;2023-08-08T06:24:34;91331.28;;;17.66;100.00
59274;BME280;45044;41.572;24.730;2023-08-08T06:27:01;91328.84;;;17.72;100.00
59274;BME280;45044;41.572;24.730;2023-08-08T06:29:28;91322.91;;;17.51;100.00
59274;BME280;45044;41.572;24.730;2023-08-08T06:31:55;91317.59;;;17.51;100.00
59274;BME280;45044;41.572;24.730;2023-08-08T06:34:22;91317.25;;;17.66;100.00
59274;BME280;45044;41.572;24.730;2023-08-08T06:36:48;91317.84;;;17.87;100.00
59274;BME280;45044;41.572;24.730;2023-08-08T06:39:15;91321.66;;;18.32;100.00
59274;BME280;45044;41.572;24.730;2023-08-08T06:41:42;91326.22;;;18.74;100.00
59274;BME280;45044;41.572;24.730;2023-08-08T06:44:09;91317.63;;;19.84;100.00
59274;BME280;45044;41.572;24.730;2023-08-08T06:46:38;91318.81;;;20.41;100.00
59274;BME280;45044;41.572;24.730;2023-08-08T06:49:06;91324.34;;;20.78;100.00
59274;BME280;45044;41.572;24.730;2023-08-08T06:51:33;91324.47;;;20.97;100.00
59274;BME280;45044;41.572;24.730;2023-08-08T06:54:00;91327.88;;;20.21;100.00
59274;BME280;45044;41.572;24.730;2023-08-08T06:56:28;91329.63;;;19.66;100.00
59274;BME280;45044;41.572;24.730;2023-08-08T06:58:55;91333.91;;;19.11;100.00
59274;BME280;45044;41.572;24.730;2023-08-08T07:01:22;91340.53;;;19.33;100.00
59274;BME280;45044;41.572;24.730;2023-08-08T07:03:49;91348.81;;;19.09;100.00
59274;BME280;45044;41.572;24.730;2023-08-08T07:06:17;91341.13;;;18.85;100.00
59274;BME280;45044;41.572;24.730;2023-08-08T07:08:44;91346.16;;;18.83;100.00
59274;BME280;45044;41.572;24.730;2023-08-08T10:43:28;91416.00;;;19.17;100.00
59274;BME280;45044;41.572;24.730;2023-08-08T10:46:00;91417.50;;;19.57;100.00
59274;BME280;45044;41.572;24.730;2023-08-08T10:48:53;91419.06;;;19.67;100.00
59274;BME280;45044;41.572;24.730;2023-08-08T10:51:21;91409.44;;;19.96;100.00
59274;BME280;45044;41.572;24.730;2023-08-08T10:53:52;91405.94;;;20.34;97.26
59274;BME280;45044;41.572;24.730;2023-08-08T10:56:19;91399.75;;;20.60;89.53
59274;BME280;45044;41.572;24.730;2023-08-08T10:58:48;91400.53;;;21.15;87.40
59274;BME280;45044;41.572;24.730;2023-08-08T11:01:17;91395.13;;;21.05;83.07
59274;BME280;45044;41.572;24.730;2023-08-08T11:03:47;91394.78;;;20.72;80.06
59274;BME280;45044;41.572;24.730;2023-08-08T11:06:16;91395.63;;;20.68;80.32
59274;BME280;45044;41.572;24.730;2023-08-08T11:08:43;91389.25;;;21.61;75.07
59274;BME280;45044;41.572;24.730;2023-08-08T11:11:10;91387.28;;;22.03;75.73
59274;BME280;45044;41.572;24.730;2023-08-08T11:13:36;91379.88;;;22.26;72.08
59274;BME280;45044;41.572;24.730;2023-08-08T11:16:03;91386.50;;;21.33;70.02
59274;BME280;45044;41.572;24.730;2023-08-08T11:18:30;91382.47;;;20.97;74.08
59274;BME280;45044;41.572;24.730;2023-08-08T11:20:57;91384.41;;;21.28;75.12
59274;BME280;45044;41.572;24.730;2023-08-08T11:23:45;91387.16;;;21.56;75.52
59274;BME280;45044;41.572;24.730;2023-08-08T11:26:12;91374.16;;;21.77;72.88
59274;BME280;45044;41.572;24.730;2023-08-08T11:28:49;91382.47;;;21.79;76.87
59274;BME280;45044;41.572;24.730;2023-08-08T11:31:18;91375.56;;;22.38;78.29
59274;BME280;45044;41.572;24.730;2023-08-08T11:33:47;91378.41;;;22.63;67.01
59274;BME280;45044;41.572;24.730;2023-08-08T11:36:14;91376.75;;;22.09;70.92
59274;BME280;45044;41.572;24.730;2023-08-08T11:38:42;91371.09;;;22.44;68.97
59274;BME280;45044;41.572;24.730;2023-08-08T11:41:10;91361.72;;;22.77;74.04
59274;BME280;45044;41.572;24.730;2023-08-08T11:43:38;91364.56;;;22.64;70.87
59274;BME280;45044;41.572;24.730;2023-08-08T11:46:12;91361.94;;;23.41;70.08
59274;BME280;45044;41.572;24.730;2023-08-08T11:48:40;91370.41;;;24.08;65.64
59274;BME280;45044;41.572;24.730;2023-08-08T11:51:08;91356.53;;;24.09;63.30
59274;BME280;45044;41.572;24.730;2023-08-08T11:53:35;91361.22;;;23.41;64.59
59274;BME280;45044;41.572;24.730;2023-08-08T11:56:03;91364.63;;;24.00;63.94
59274;BME280;45044;41.572;24.730;2023-08-08T11:58:30;91367.38;;;23.90;63.64
59274;BME280;45044;41.572;24.730;2023-08-08T12:00:58;91350.31;;;24.27;60.73
59274;BME280;45044;41.572;24.730;2023-08-08T12:03:26;91355.91;;;23.90;62.82
59274;BME280;45044;41.572;24.730;2023-08-08T12:05:53;91363.38;;;24.10;61.68
59274;BME280;45044;41.572;24.730;2023-08-08T12:08:20;91353.38;;;24.35;61.00
59274;BME280;45044;41.572;24.730;2023-08-08T12:10:48;91355.34;;;23.52;63.77
59274;BME280;45044;41.572;24.730;2023-08-08T12:13:21;91350.91;;;23.49;66.44
59274;BME280;45044;41.572;24.730;2023-08-08T12:15:49;91346.00;;;23.04;66.44
59274;BME280;45044;41.572;24.730;2023-08-08T12:18:18;91355.16;;;22.78;68.08
59274;BME280;45044;41.572;24.730;2023-08-08T12:20:45;91341.03;;;22.59;73.14
59274;BME280;45044;41.572;24.730;2023-08-08T12:23:14;91339.84;;;22.69;69.14
59274;BME280;45044;41.572;24.730;2023-08-08T12:25:42;91343.28;;;22.23;71.39
59274;BME280;45044;41.572;24.730;2023-08-08T12:28:09;91332.59;;;22.13;72.12
59274;BME280;45044;41.572;24.730;2023-08-08T12:30:36;91331.09;;;22.22;75.09
59274;BME280;45044;41.572;24.730;2023-08-08T12:33:03;91326.75;;;22.53;72.24
59274;BME280;45044;41.572;24.730;2023-08-08T12:35:30;91335.69;;;22.59;65.61
59274;BME280;45044;41.572;24.730;2023-08-08T12:37:58;91333.38;;;22.95;77.22
59274;BME280;45044;41.572;24.730;2023-08-08T12:40:24;91327.63;;;22.78;67.74
59274;BME280;45044;41.572;24.730;2023-08-08T12:42:52;91298.78;;;23.06;66.55
59274;BME280;45044;41.572;24.730;2023-08-08T12:45:19;91326.81;;;22.96;63.45
59274;BME280;45044;41.572;24.730;2023-08-08T12:47:46;91331.13;;;23.37;63.59
59274;BME280;45044;41.572;24.730;2023-08-08T12:50:13;91327.38;;;23.09;65.60
59274;BME280;45044;41.572;24.730;2023-08-08T12:52:40;91314.69;;;23.78;62.01
59274;BME280;45044;41.572;24.730;2023-08-08T12:55:08;91321.03;;;24.45;65.75
59274;BME280;45044;41.572;24.730;2023-08-08T12:57:38;91308.81;;;24.74;62.70
59274;BME280;45044;41.572;24.730;2023-08-08T13:00:06;91314.47;;;24.76;61.51
59274;BME280;45044;41.572;24.730;2023-08-08T15:11:10;91369.31;;;21.44;100.00
59274;BME280;45044;41.572;24.730;2023-08-08T15:13:38;91362.75;;;21.45;100.00
59274;BME280;45044;41.572;24.730;2023-08-08T15:16:05;91363.88;;;21.15;100.00
59274;BME280;45044;41.572;24.730;2023-08-08T15:18:33;91367.88;;;21.20;100.00
59274;BME280;45044;41.572;24.730;2023-08-08T15:21:00;91369.50;;;21.17;100.00
59274;BME280;45044;41.572;24.730;2023-08-08T15:23:27;91370.97;;;21.09;100.00
59274;BME280;45044;41.572;24.730;2023-08-08T15:25:54;91371.44;;;21.17;100.00
59274;BME280;45044;41.572;24.730;2023-08-08T15:28:21;91361.72;;;21.01;100.00
59274;BME280;45044;41.572;24.730;2023-08-08T15:30:48;91368.81;;;20.94;100.00
59274;BME280;45044;41.572;24.730;2023-08-08T15:33:15;91370.31;;;20.73;100.00
59274;BME280;45044;41.572;24.730;2023-08-08T15:35:42;91376.88;;;20.81;100.00
59274;BME280;45044;41.572;24.730;2023-08-08T15:38:10;91371.78;;;20.97;100.00
59274;BME280;45044;41.572;24.730;2023-08-08T15:40:37;91388.72;;;21.03;100.00
59274;BME280;45044;41.572;24.730;2023-08-08T15:43:06;91386.06;;;21.03;100.00
59274;BME280;45044;41.572;24.730;2023-08-08T15:45:33;91376.50;;;20.92;100.00
59274;BME280;45044;41.572;24.730;2023-08-08T15:48:00;91386.50;;;21.01;100.00
59274;BME280;45044;41.572;24.730;2023-08-08T15:50:27;91387.88;;;20.83;100.00
59274;BME280;45044;41.572;24.730;2023-08-08T15:52:54;91395.44;;;20.85;100.00
59274;BME280;45044;41.572;24.730;2023-08-08T15:55:23;91383.84;;;20.79;100.00
59274;BME280;45044;41.572;24.730;2023-08-08T15:57:50;91398.63;;;20.70;100.00
59274;BME280;45044;41.572;24.730;2023-08-08T16:00:17;91399.19;;;20.65;100.00
59274;BME280;45044;41.572;24.730;2023-08-08T16:02:44;91400.25;;;20.68;100.00
59274;BME280;45044;41.572;24.730;2023-08-08T16:05:12;91402.22;;;20.54;100.00
59274;BME280;45044;41.572;24.730;2023-08-08T16:07:38;91403.59;;;20.59;100.00
59274;BME280;45044;41.572;24.730;2023-08-08T16:10:06;91399.34;;;20.49;100.00
59274;BME280;45044;41.572;24.730;2023-08-08T16:12:33;91410.03;;;20.26;100.00
59274;BME280;45044;41.572;24.730;2023-08-08T16:15:02;91408.75;;;20.05;100.00
59274;BME280;45044;41.572;24.730;2023-08-08T16:17:30;91412.84;;;20.09;100.00
59274;BME280;45044;41.572;24.730;2023-08-08T16:19:57;91420.66;;;19.78;100.00
59274;BME280;45044;41.572;24.730;2023-08-08T16:22:26;91414.91;;;19.79;100.00
59274;BME280;45044;41.572;24.730;2023-08-08T16:24:53;91417.06;;;19.71;100.00
59274;BME280;45044;41.572;24.730;2023-08-08T16:27:20;91415.31;;;19.78;100.00
59274;BME280;45044;41.572;24.730;2023-08-08T16:29:46;91419.19;;;19.77;100.00
59274;BME280;45044;41.572;24.730;2023-08-08T16:32:13;91423.56;;;19.57;100.00
59274;BME280;45044;41.572;24.730;2023-08-08T16:34:40;91422.41;;;19.45;100.00
59274;BME280;45044;41.572;24.730;2023-08-08T16:37:07;91423.78;;;19.50;100.00
59274;BME280;45044;41.572;24.730;2023-08-08T16:39:34;91429.31;;;19.30;100.00
59274;BME280;45044;41.572;24.730;2023-08-08T16:42:01;91429.44;;;19.39;100.00
59274;BME280;45044;41.572;24.730;2023-08-08T16:44:28;91439.75;;;19.24;100.00
59274;BME280;45044;41.572;24.730;2023-08-08T16:46:55;91434.53;;;19.20;100.00
59274;BME280;45044;41.572;24.730;2023-08-08T16:49:22;91445.28;;;19.17;100.00
59274;BME280;45044;41.572;24.730;2023-08-08T16:51:48;91430.06;;;19.17;100.00
59274;BME280;45044;41.572;24.730;2023-08-08T16:54:16;91440.44;;;18.98;100.00
59274;BME280;45044;41.572;24.730;2023-08-08T16:56:43;91436.34;;;18.81;100.00
59274;BME280;45044;41.572;24.730;2023-08-08T16:59:09;91440.59;;;18.78;100.00
59274;BME280;45044;41.572;24.730;2023-08-08T17:01:36;91441.88;;;18.73;100.00
59274;BME280;45044;41.572;24.730;2023-08-08T17:04:09;91439.53;;;18.75;100.00
59274;BME280;45044;41.572;24.730;2023-08-08T17:06:39;91443.88;;;18.69;100.00
59274;BME280;45044;41.572;24.730;2023-08-08T17:09:07;91445.34;;;18.57;100.00
59274;BME280;45044;41.572;24.730;2023-08-08T17:11:34;91446.44;;;18.43;100.00
59274;BME280;45044;41.572;24.730;2023-08-08T17:14:03;91443.66;;;18.34;100.00
59274;BME280;45044;41.572;24.730;2023-08-08T17:16:30;91446.63;;;18.36;100.00
59274;BME280;45044;41.572;24.730;2023-08-08T17:18:57;91450.38;;;18.38;100.00
59274;BME280;45044;41.572;24.730;2023-08-08T17:21:24;91459.03;;;18.26;100.00
59274;BME280;45044;41.572;24.730;2023-08-08T17:23:51;91455.97;;;17.77;100.00
59274;BME280;45044;41.572;24.730;2023-08-08T17:26:18;91452.81;;;17.82;100.00
59274;BME280;45044;41.572;24.730;2023-08-08T17:28:45;91468.59;;;17.73;100.00
59274;BME280;45044;41.572;24.730;2023-08-08T17:31:13;91462.34;;;17.63;100.00
59274;BME280;45044;41.572;24.730;2023-08-08T17:33:40;91469.88;;;17.48;100.00
59274;BME280;45044;41.572;24.730;2023-08-08T17:36:07;91464.47;;;17.35;100.00
59274;BME280;45044;41.572;24.730;2023-08-08T17:38:34;91471.16;;;17.23;100.00
59274;BME280;45044;41.572;24.730;2023-08-08T17:41:01;91478.81;;;17.21;100.00
59274;BME280;45044;41.572;24.730;2023-08-08T17:43:28;91487.63;;;17.34;100.00
59274;BME280;45044;41.572;24.730;2023-08-08T17:45:55;91490.22;;;17.18;100.00
59274;BME280;45044;41.572;24.730;2023-08-08T17:48:23;91483.63;;;17.06;100.00
59274;BME280;45044;41.572;24.730;2023-08-08T17:50:54;91488.72;;;16.96;100.00
59274;BME280;45044;41.572;24.730;2023-08-08T17:53:23;91489.34;;;16.84;100.00
59274;BME280;45044;41.572;24.730;2023-08-08T17:55:50;91496.94;;;16.82;100.00
59274;BME280;45044;41.572;24.730;2023-08-08T17:58:17;91508.06;;;16.76;100.00
59274;BME280;45044;41.572;24.730;2023-08-08T18:00:44;91505.88;;;16.71;100.00
59274;BME280;45044;41.572;24.730;2023-08-08T18:03:11;91508.00;;;16.56;100.00
59274;BME280;45044;41.572;24.730;2023-08-08T18:05:38;91515.84;;;16.63;100.00
59274;BME280;45044;41.572;24.730;2023-08-08T18:08:05;91516.06;;;16.73;100.00
59274;BME280;45044;41.572;24.730;2023-08-08T18:10:32;91520.16;;;16.57;100.00
59274;BME280;45044;41.572;24.730;2023-08-08T18:13:04;91524.69;;;16.09;100.00
59274;BME280;45044;41.572;24.730;2023-08-08T18:15:35;91524.81;;;16.25;100.00
59274;BME280;45044;41.572;24.730;2023-08-08T18:18:04;91526.59;;;16.32;100.00
59274;BME280;45044;41.572;24.730;2023-08-08T18:20:38;91537.53;;;16.10;100.00
59274;BME280;45044;41.572;24.730;2023-08-08T18:23:12;91545.19;;;16.08;100.00
59274;BME280;45044;41.572;24.730;2023-08-08T18:25:39;91553.16;;;15.77;100.00
59274;BME280;45044;41.572;24.730;2023-08-08T18:28:08;91547.38;;;15.54;100.00